createdAt,value
2022-09-22T00:01:05.256Z,99128.88
2022-09-22T00:03:08.799Z,99121.44
2022-09-22T00:05:11.579Z,99131.09
2022-09-22T00:07:14.244Z,99134.41
2022-09-22T00:09:20.109Z,99130.63
2022-09-22T00:11:25.544Z,99128.34
2022-09-22T00:13:28.243Z,99117.41
2022-09-22T00:15:31.005Z,99125.34
2022-09-22T00:17:33.779Z,99122.50
2022-09-22T00:19:38.169Z,99122.50
2022-09-22T00:21:41.202Z,99121.66
2022-09-22T00:23:44.860Z,99117.31
2022-09-22T00:25:47.478Z,99113.63
2022-09-22T00:27:54.545Z,99107.31
2022-09-22T00:29:57.310Z,99110.88
2022-09-22T00:32:03.687Z,99127.41
2022-09-22T00:34:18.348Z,99127.41
2022-09-22T00:36:24.065Z,99124.66
2022-09-22T00:38:27.194Z,99121.56
2022-09-22T00:40:29.897Z,99113.63
2022-09-22T00:42:32.819Z,99112.94
2022-09-22T00:44:43.025Z,99118.91
2022-09-22T00:46:51.895Z,99110.88
2022-09-22T00:49:01.989Z,99124.41
2022-09-22T00:51:08.274Z,99126.38
2022-09-22T00:53:14.797Z,99121.34
2022-09-22T00:55:30.282Z,99123.75
2022-09-22T00:57:37.155Z,99122.94
2022-09-22T00:59:41.813Z,99132.13
2022-09-22T01:01:45.444Z,99120.75
2022-09-22T01:03:50.276Z,99119.28
2022-09-22T01:05:56.173Z,99117.31
2022-09-22T01:07:58.881Z,99116.97
2022-09-22T01:10:01.748Z,99119.38
2022-09-22T01:12:06.613Z,99119.03
2022-09-22T01:14:25.534Z,99125.81
2022-09-22T01:16:52.358Z,99118.00
2022-09-22T01:19:44.802Z,99108.16
2022-09-22T01:21:56.456Z,99111.09
2022-09-22T01:24:22.886Z,99104.34
2022-09-22T01:26:57.577Z,99113.84
2022-09-22T01:29:24.429Z,99128.09
2022-09-22T01:31:51.021Z,99116.75
2022-09-22T01:34:19.770Z,99115.13
2022-09-22T01:36:43.536Z,99118.94
2022-09-22T01:38:55.895Z,99117.66
2022-09-22T01:41:07.429Z,99123.84
2022-09-22T01:43:32.167Z,99116.63
2022-09-22T01:45:39.337Z,99117.66
2022-09-22T01:47:55.349Z,99121.56
2022-09-22T01:50:05.843Z,99110.41
2022-09-22T01:52:21.153Z,99104.44
2022-09-22T01:54:33.269Z,99106.88
2022-09-22T01:56:37.600Z,99111.22
2022-09-22T01:58:46.027Z,99120.41
2022-09-22T02:00:56.889Z,99121.34
2022-09-22T02:03:27.965Z,99114.31
2022-09-22T02:05:40.405Z,99118.81
2022-09-22T02:07:48.873Z,99115.34
2022-09-22T02:09:51.876Z,99116.28
2022-09-22T02:11:54.635Z,99120.31
2022-09-22T02:13:57.635Z,99115.25
2022-09-22T02:16:00.487Z,99120.88
2022-09-22T02:18:10.106Z,99122.16
2022-09-22T02:20:12.817Z,99129.16
2022-09-22T02:22:15.491Z,99120.19
2022-09-22T02:24:37.282Z,99120.53
2022-09-22T02:26:39.911Z,99115.25
2022-09-22T02:28:45.208Z,99123.28
2022-09-22T02:31:17.502Z,99101.59
2022-09-22T02:33:15.343Z,99102.84
2022-09-22T02:35:18.340Z,99108.38
2022-09-22T02:37:49.985Z,99118.22
2022-09-22T02:39:57.129Z,99104.69
2022-09-22T02:42:33.556Z,99114.91
2022-09-22T02:45:03.895Z,99109.97
2022-09-22T02:47:13.468Z,99112.59
2022-09-22T02:49:19.430Z,99106.19
2022-09-22T02:51:22.778Z,99108.50
2022-09-22T02:53:25.458Z,99108.03
2022-09-22T02:55:28.341Z,99107.56
2022-09-22T02:57:30.997Z,99104.47
2022-09-22T02:59:33.614Z,99117.09
2022-09-22T03:01:36.756Z,99108.03
2022-09-22T03:03:39.541Z,99105.59
2022-09-22T03:05:42.280Z,99102.16
2022-09-22T03:07:45.109Z,99110.66
2022-09-22T03:09:47.881Z,99109.50
2022-09-22T03:11:50.602Z,99113.19
2022-09-22T03:13:54.314Z,99119.59
2022-09-22T03:15:57.204Z,99106.75
2022-09-22T03:17:59.933Z,99116.41
2022-09-22T03:20:04.612Z,99118.44
2022-09-22T03:22:07.466Z,99112.25
2022-09-22T03:24:10.250Z,99113.88
2022-09-22T03:26:13.028Z,99113.63
2022-09-22T03:28:15.794Z,99109.38
2022-09-22T03:30:18.535Z,99116.94
2022-09-22T03:32:22.453Z,99102.81
2022-09-22T03:34:25.240Z,99111.22
2022-09-22T03:36:27.919Z,99105.69
2022-09-22T03:38:30.659Z,99100.19
2022-09-22T03:40:33.458Z,99092.25
2022-09-22T03:42:36.175Z,99096.72
2022-09-22T03:44:38.769Z,99094.50
2022-09-22T03:46:41.467Z,99096.47
2022-09-22T03:48:45.288Z,99102.78
2022-09-22T03:50:48.151Z,99091.06
2022-09-22T03:52:50.888Z,99102.53
2022-09-22T03:54:54.701Z,99103.44
2022-09-22T03:56:57.407Z,99107.13
2022-09-22T03:59:00.227Z,99111.94
2022-09-22T04:01:03.905Z,99114.44
2022-09-22T04:03:07.113Z,99123.78
2022-09-22T04:05:10.988Z,99122.28
2022-09-22T04:07:13.682Z,99111.59
2022-09-22T04:09:18.598Z,99126.16
2022-09-22T04:11:21.194Z,99123.94
2022-09-22T04:13:24.159Z,99125.91
2022-09-22T04:15:26.841Z,99124.84
2022-09-22T04:17:29.499Z,99124.13
2022-09-22T04:19:36.010Z,99119.16
2022-09-22T04:21:38.877Z,99125.59
2022-09-22T04:23:41.562Z,99120.53
2022-09-22T04:25:44.232Z,99118.28
2022-09-22T04:27:47.095Z,99121.50
2022-09-22T04:29:50.215Z,99116.81
2022-09-22T04:31:52.852Z,99112.16
2022-09-22T04:33:55.476Z,99098.03
2022-09-22T04:35:58.167Z,99112.34
2022-09-22T04:38:01.038Z,99110.06
2022-09-22T04:40:04.242Z,99117.63
2022-09-22T04:42:09.275Z,99104.72
2022-09-22T04:44:11.947Z,99106.53
2022-09-22T04:46:14.688Z,99114.09
2022-09-22T04:48:17.582Z,99114.63
2022-09-22T04:50:22.326Z,99119.97
2022-09-22T04:52:25.134Z,99117.41
2022-09-22T04:54:27.769Z,99117.56
2022-09-22T04:56:30.469Z,99123.28
2022-09-22T04:58:33.328Z,99123.38
2022-09-22T05:00:36.724Z,99118.13
2022-09-22T05:02:39.402Z,99119.91
2022-09-22T05:04:42.072Z,99122.84
2022-09-22T05:06:44.716Z,99123.72
2022-09-22T05:08:47.365Z,99131.00
2022-09-22T05:10:50.077Z,99140.53
2022-09-22T05:12:53.885Z,99130.22
2022-09-22T05:15:01.046Z,99140.34
2022-09-22T05:17:04.164Z,99140.59
2022-09-22T05:19:06.808Z,99135.25
2022-09-22T05:21:09.522Z,99131.53
2022-09-22T05:23:12.230Z,99139.13
2022-09-22T05:25:18.303Z,99137.69
2022-09-22T05:27:21.019Z,99139.00
2022-09-22T05:29:27.759Z,99139.44
2022-09-22T05:31:31.043Z,99121.63
2022-09-22T05:33:33.816Z,99120.09
2022-09-22T05:35:37.156Z,99111.78
2022-09-22T05:37:43.461Z,99116.16
2022-09-22T05:39:46.156Z,99124.84
2022-09-22T05:41:52.088Z,99124.84
2022-09-22T05:43:54.841Z,99116.91
2022-09-22T05:45:58.075Z,99106.19
2022-09-22T05:48:00.990Z,99107.69
2022-09-22T05:50:04.577Z,99113.56
2022-09-22T05:52:07.558Z,99108.75
2022-09-22T05:54:10.327Z,99107.88
2022-09-22T05:56:13.061Z,99105.91
2022-09-22T05:58:16.118Z,99101.50
2022-09-22T06:00:19.070Z,99100.00
2022-09-22T06:02:26.386Z,99105.97
2022-09-22T06:04:29.661Z,99116.75
2022-09-22T06:06:32.337Z,99130.31
2022-09-22T06:08:35.070Z,99125.16
2022-09-22T06:10:39.460Z,99120.06
2022-09-22T06:12:42.164Z,99098.59
2022-09-22T06:14:45.139Z,99129.78
2022-09-22T06:16:48.235Z,99133.06
2022-09-22T06:18:51.125Z,99121.97
2022-09-22T06:20:56.373Z,99098.28
2022-09-22T06:23:00.231Z,99089.56
2022-09-22T06:25:03.652Z,99088.47
2022-09-22T06:27:07.007Z,99077.88
2022-09-22T06:29:10.882Z,99071.94
2022-09-22T06:31:15.524Z,99094.13
2022-09-22T06:33:19.943Z,99114.41
2022-09-22T06:35:24.372Z,99132.63
2022-09-22T06:37:28.162Z,99114.41
2022-09-22T06:39:32.838Z,99096.53
2022-09-22T06:41:37.769Z,99107.63
2022-09-22T06:43:43.544Z,99096.91
2022-09-22T06:45:47.251Z,99075.13
2022-09-22T06:47:50.183Z,99082.19
2022-09-22T06:50:09.106Z,99060.03
2022-09-22T06:52:13.816Z,99090.63
2022-09-22T06:54:16.750Z,99106.63
2022-09-22T06:56:20.448Z,99077.00
2022-09-22T06:58:23.222Z,99067.16
2022-09-22T07:00:31.425Z,99079.50
2022-09-22T07:02:36.171Z,99077.13
2022-09-22T07:04:38.725Z,99052.88
2022-09-22T07:06:42.802Z,99062.47
2022-09-22T07:08:48.275Z,99080.00
2022-09-22T07:10:58.934Z,99111.84
2022-09-22T07:13:01.519Z,99085.00
2022-09-22T07:15:04.907Z,99043.69
2022-09-22T07:17:07.650Z,99028.69
2022-09-22T07:19:10.699Z,99036.09
2022-09-22T07:21:36.671Z,99104.50
2022-09-22T07:23:40.992Z,99094.72
2022-09-22T07:25:44.734Z,99010.47
2022-09-22T07:27:47.282Z,98975.16
2022-09-22T07:29:49.822Z,98996.84
2022-09-22T07:31:54.014Z,99079.59
2022-09-22T07:34:00.417Z,99082.66
2022-09-22T07:36:11.393Z,99060.19
2022-09-22T07:38:14.247Z,99073.38
2022-09-22T07:40:16.984Z,99088.16
2022-09-22T07:42:20.193Z,99083.44
2022-09-22T07:44:44.523Z,99094.50
2022-09-22T07:46:47.783Z,99062.41
2022-09-22T07:48:50.450Z,99119.69
2022-09-22T07:50:55.758Z,99131.09
2022-09-22T07:52:59.666Z,99072.69
2022-09-22T07:55:02.331Z,99075.91
2022-09-22T07:57:11.287Z,99075.66
2022-09-22T07:59:16.956Z,99063.34
2022-09-22T08:01:24.117Z,99024.72
2022-09-22T08:03:26.678Z,99026.91
2022-09-22T08:05:29.949Z,99094.50
2022-09-22T08:07:36.387Z,99114.09
2022-09-22T08:09:39.236Z,99135.66
2022-09-22T08:11:46.218Z,99125.53
2022-09-22T08:13:57.303Z,99117.44
2022-09-22T08:16:00.206Z,99083.47
2022-09-22T08:18:04.328Z,99062.38
2022-09-22T08:20:09.178Z,99069.00
2022-09-22T08:22:13.256Z,99073.19
2022-09-22T08:24:22.483Z,99081.25
2022-09-22T08:26:25.608Z,99097.16
2022-09-22T08:28:30.189Z,99077.84
2022-09-22T08:30:32.958Z,99074.75
2022-09-22T08:32:36.675Z,99062.13
2022-09-22T08:34:39.564Z,99061.78
2022-09-22T08:36:46.722Z,99078.91
2022-09-22T08:38:49.779Z,99072.16
2022-09-22T08:41:15.621Z,99075.44
2022-09-22T08:43:18.293Z,99105.75
2022-09-22T08:45:27.256Z,99078.81
2022-09-22T08:48:09.081Z,99073.63
2022-09-22T08:50:55.806Z,99027.13
2022-09-22T08:52:59.343Z,99080.00
2022-09-22T08:55:03.681Z,99097.97
2022-09-22T08:57:31.058Z,99035.16
2022-09-22T08:59:43.007Z,99060.56
2022-09-22T09:02:05.761Z,99089.22
2022-09-22T09:04:35.068Z,99135.34
2022-09-22T09:06:58.301Z,99123.03
2022-09-22T09:09:32.324Z,99113.09
2022-09-22T09:11:49.963Z,99115.78
2022-09-22T09:14:04.420Z,99137.22
2022-09-22T09:16:38.170Z,99132.38
2022-09-22T09:18:50.884Z,99089.81
2022-09-22T09:20:55.997Z,99080.25
2022-09-22T09:23:00.407Z,99057.94
2022-09-22T09:25:23.065Z,99054.34
2022-09-22T09:27:34.859Z,99066.63
2022-09-22T09:29:48.943Z,99086.63
2022-09-22T09:31:55.463Z,99117.00
2022-09-22T09:34:06.273Z,99115.97
2022-09-22T09:36:20.642Z,99085.16
2022-09-22T09:38:28.536Z,99087.66
2022-09-22T09:40:31.220Z,99098.88
2022-09-22T09:42:36.913Z,99101.00
2022-09-22T09:44:40.307Z,99084.38
2022-09-22T09:47:39.997Z,99066.88
2022-09-22T09:49:42.717Z,99059.31
2022-09-22T09:51:48.786Z,99099.16
2022-09-22T09:53:52.655Z,99115.91
2022-09-22T09:55:55.361Z,99105.56
2022-09-22T09:58:11.078Z,99115.88
2022-09-22T10:00:33.998Z,99159.63
2022-09-22T10:02:47.716Z,99139.38
2022-09-22T10:05:00.659Z,99155.69
2022-09-22T10:07:21.570Z,99152.81
2022-09-22T10:09:33.902Z,99146.03
2022-09-22T10:11:36.700Z,99133.66
2022-09-22T10:13:40.967Z,99130.81
2022-09-22T10:15:43.867Z,99121.25
2022-09-22T10:17:46.510Z,99119.63
2022-09-22T10:19:50.846Z,99126.38
2022-09-22T10:21:55.018Z,99126.34
2022-09-22T10:24:00.247Z,99131.16
2022-09-22T10:26:17.309Z,99133.53
2022-09-22T10:28:21.913Z,99133.53
2022-09-22T10:30:24.850Z,99131.41
2022-09-22T10:32:27.691Z,99133.75
2022-09-22T10:34:34.813Z,99141.63
2022-09-22T10:36:45.900Z,99135.13
2022-09-22T10:38:51.659Z,99122.38
2022-09-22T10:41:17.905Z,99129.13
2022-09-22T10:43:24.446Z,99097.78
2022-09-22T10:45:43.051Z,99105.28
2022-09-22T10:47:57.100Z,99125.25
2022-09-22T10:50:28.606Z,99092.34
2022-09-22T10:52:51.384Z,99080.38
2022-09-22T10:55:02.879Z,99082.78
2022-09-22T10:57:16.251Z,99062.09
2022-09-22T10:59:47.120Z,99047.75
2022-09-22T11:02:07.606Z,99063.59
2022-09-22T11:04:33.810Z,99064.38
2022-09-22T11:07:01.531Z,99048.84
2022-09-22T11:09:33.127Z,99048.41
2022-09-22T11:12:06.443Z,99034.44
2022-09-22T11:14:27.571Z,99033.63
2022-09-22T11:16:38.885Z,99032.78
2022-09-22T11:19:09.417Z,99027.59
2022-09-22T11:21:24.091Z,99023.53
2022-09-22T11:23:34.561Z,99021.81
2022-09-22T11:25:46.028Z,99022.66
2022-09-22T11:28:07.581Z,99024.25
2022-09-22T11:30:21.825Z,99024.22
2022-09-22T11:32:31.265Z,99016.19
2022-09-22T11:34:57.194Z,99031.34
2022-09-22T11:37:37.124Z,99031.72
2022-09-22T11:39:53.142Z,99037.28
2022-09-22T11:41:55.631Z,99060.72
2022-09-22T11:44:32.470Z,99073.06
2022-09-22T11:47:03.475Z,99079.72
2022-09-22T11:49:38.180Z,99083.59
2022-09-22T11:51:56.986Z,99091.84
2022-09-22T11:54:20.539Z,99089.00
2022-09-22T11:56:50.775Z,99093.31
2022-09-22T11:58:58.107Z,99087.25
2022-09-22T12:01:12.312Z,99090.47
2022-09-22T12:03:29.372Z,99088.91
2022-09-22T12:05:43.811Z,99076.59
2022-09-22T12:07:56.351Z,99079.81
2022-09-22T12:10:07.741Z,99074.31
2022-09-22T12:12:15.037Z,99079.47
2022-09-22T12:14:17.852Z,99072.75
2022-09-22T12:16:58.929Z,99062.09
2022-09-22T12:19:40.704Z,99068.44
2022-09-22T12:22:08.763Z,99071.16
2022-09-22T12:24:12.805Z,99064.81
2022-09-22T12:26:26.441Z,99073.56
2022-09-22T12:28:32.337Z,99089.94
2022-09-22T12:30:34.969Z,99075.78
2022-09-22T12:32:39.744Z,99071.88
2022-09-22T12:34:44.644Z,99079.44
2022-09-22T12:36:48.909Z,99089.06
2022-09-22T12:38:53.024Z,99100.25
2022-09-22T12:41:03.057Z,99093.19
2022-09-22T12:43:06.229Z,99092.78
2022-09-22T12:45:32.758Z,99086.06
2022-09-22T12:47:41.065Z,99090.78
2022-09-22T12:49:59.376Z,99087.63
2022-09-22T12:52:02.411Z,99083.66
2022-09-22T12:54:23.255Z,99080.09
2022-09-22T12:56:45.580Z,99072.16
2022-09-22T12:58:48.449Z,99064.97
2022-09-22T13:00:56.354Z,99060.56
2022-09-22T13:02:59.332Z,99056.22
2022-09-22T13:05:01.871Z,99063.78
2022-09-22T13:07:37.082Z,99065.34
2022-09-22T13:09:39.885Z,99064.06
2022-09-22T13:12:13.247Z,99070.03
2022-09-22T13:15:11.804Z,99086.28
2022-09-22T13:17:41.581Z,99091.81
2022-09-22T13:19:56.150Z,99085.78
2022-09-22T13:22:15.419Z,99080.16
2022-09-22T13:24:23.636Z,99090.53
2022-09-22T13:26:34.851Z,99089.69
2022-09-22T13:28:37.417Z,99097.97
2022-09-22T13:30:42.305Z,99107.94
2022-09-22T13:32:49.842Z,99096.44
2022-09-22T13:34:52.450Z,99100.00
2022-09-22T13:37:01.679Z,99103.91
2022-09-22T13:39:04.747Z,99097.06
2022-09-22T13:41:17.481Z,99104.09
2022-09-22T13:43:32.273Z,99097.34
2022-09-22T13:45:36.277Z,99092.19
2022-09-22T13:47:42.529Z,99081.47
2022-09-22T13:49:54.068Z,99080.94
2022-09-22T13:51:58.786Z,99076.44
2022-09-22T13:54:04.282Z,99069.94
2022-09-22T13:56:19.307Z,99064.28
2022-09-22T13:58:39.853Z,99059.00
2022-09-22T14:01:12.143Z,99057.66
2022-09-22T14:03:20.507Z,99065.44
2022-09-22T14:05:30.430Z,99085.34
2022-09-22T14:07:45.129Z,99082.63
2022-09-22T14:09:59.657Z,99077.88
2022-09-22T14:12:03.111Z,99085.00
2022-09-22T14:14:07.822Z,99088.56
2022-09-22T14:16:36.454Z,99086.31
2022-09-22T14:18:44.923Z,99079.97
2022-09-22T14:20:48.489Z,99077.97
2022-09-22T14:22:51.026Z,99065.16
2022-09-22T14:24:59.741Z,99059.84
2022-09-22T14:27:06.628Z,99058.94
2022-09-22T14:29:18.855Z,99036.56
2022-09-22T14:31:26.269Z,99045.16
2022-09-22T14:33:33.630Z,99048.75
2022-09-22T14:35:37.433Z,99042.00
2022-09-22T14:37:48.115Z,99049.97
2022-09-22T14:39:53.434Z,99055.94
2022-09-22T14:41:59.313Z,99048.41
2022-09-22T14:44:21.381Z,99055.16
2022-09-22T14:46:36.726Z,99046.75
2022-09-22T14:48:39.381Z,99047.94
2022-09-22T14:50:49.103Z,99041.56
2022-09-22T14:52:54.384Z,99042.00
2022-09-22T14:55:03.275Z,99034.88
2022-09-22T14:57:08.563Z,99044.78
2022-09-22T14:59:37.048Z,99042.00
2022-09-22T15:02:09.855Z,99056.31
2022-09-22T15:04:18.808Z,99053.88
2022-09-22T15:06:21.528Z,99052.75
2022-09-22T15:08:29.757Z,99053.59
2022-09-22T15:10:36.027Z,99057.16
2022-09-22T15:12:48.667Z,99061.53
2022-09-22T15:14:59.634Z,99058.75
2022-09-22T15:17:21.902Z,99067.06
2022-09-22T15:19:24.872Z,99072.63
2022-09-22T15:21:29.402Z,99065.47
2022-09-22T15:23:41.393Z,99053.97
2022-09-22T15:25:45.230Z,99054.41
2022-09-22T15:27:50.537Z,99055.19
2022-09-22T15:29:55.027Z,99050.44
2022-09-22T15:31:57.661Z,99040.91
2022-09-22T15:34:03.195Z,99037.22
2022-09-22T15:36:15.961Z,99046.41
2022-09-22T15:38:24.213Z,99058.22
2022-09-22T15:40:26.761Z,99047.06
2022-09-22T15:42:29.595Z,99062.47
2022-09-22T15:44:32.715Z,99054.53
2022-09-22T15:46:38.074Z,99058.91
2022-09-22T15:48:40.830Z,99060.88
2022-09-22T15:50:44.323Z,99054.53
2022-09-22T15:52:47.156Z,99061.69
2022-09-22T15:54:49.750Z,99054.16
2022-09-22T15:56:54.930Z,99048.63
2022-09-22T15:59:01.306Z,99051.00
2022-09-22T16:01:04.068Z,99053.78
2022-09-22T16:03:24.049Z,99044.31
2022-09-22T16:05:29.117Z,99049.06
2022-09-22T16:07:31.740Z,99044.22
2022-09-22T16:10:05.529Z,99059.41
2022-09-22T16:12:24.988Z,99049.47
2022-09-22T16:14:27.540Z,99055.00
2022-09-22T16:16:35.339Z,99048.66
2022-09-22T16:18:39.750Z,99044.75
2022-09-22T16:20:42.516Z,99044.75
2022-09-22T16:22:45.608Z,99037.56
2022-09-22T16:24:48.173Z,99040.78
2022-09-22T16:26:52.323Z,99038.81
2022-09-22T16:28:59.156Z,99043.56
2022-09-22T16:31:03.459Z,99046.75
2022-09-22T16:33:06.059Z,99036.78
2022-09-22T16:35:09.154Z,99049.09
2022-09-22T16:37:11.812Z,99045.16
2022-09-22T16:39:14.335Z,99043.19
2022-09-22T16:41:25.546Z,99051.94
2022-09-22T16:43:28.165Z,99048.34
2022-09-22T16:45:49.547Z,99047.97
2022-09-22T16:47:59.628Z,99050.66
2022-09-22T16:50:03.373Z,99054.16
2022-09-22T16:52:06.088Z,99048.66
2022-09-22T16:54:12.475Z,99050.66
2022-09-22T16:56:15.020Z,99044.66
2022-09-22T16:58:17.759Z,99047.06
2022-09-22T17:00:20.343Z,99044.66
2022-09-22T17:02:24.120Z,99045.41
2022-09-22T17:04:26.745Z,99035.38
2022-09-22T17:06:29.447Z,99036.56
2022-09-22T17:08:32.237Z,99043.28
2022-09-22T17:10:35.992Z,99032.56
2022-09-22T17:12:38.928Z,99029.72
2022-09-22T17:14:43.742Z,99033.97
2022-09-22T17:16:49.929Z,99028.75
2022-09-22T17:18:53.404Z,99023.44
2022-09-22T17:20:56.055Z,99031.63
2022-09-22T17:22:58.787Z,99032.63
2022-09-22T17:25:01.278Z,99035.78
2022-09-22T17:27:05.693Z,99035.78
2022-09-22T17:29:08.682Z,99025.38
2022-09-22T17:31:13.146Z,99030.47
2022-09-22T17:33:17.132Z,99026.13
2022-09-22T17:35:19.693Z,99026.47
2022-09-22T17:37:23.185Z,99029.16
2022-09-22T17:39:27.287Z,99024.31
2022-09-22T17:41:33.021Z,99021.81
2022-09-22T17:43:43.520Z,99022.56
2022-09-22T17:45:46.083Z,99023.22
2022-09-22T17:48:07.445Z,99027.06
2022-09-22T17:50:30.794Z,99024.13
2022-09-22T17:52:33.449Z,99016.47
2022-09-22T17:54:57.798Z,99026.75
2022-09-22T17:57:00.334Z,99025.84
2022-09-22T17:59:03.057Z,99031.84
2022-09-22T18:01:28.552Z,99032.53
2022-09-22T18:03:52.085Z,99025.84
2022-09-22T18:09:20.965Z,99035.69
2022-09-22T18:11:45.828Z,99026.16
2022-09-22T18:13:50.791Z,99023.22
2022-09-22T18:15:53.561Z,99012.97
2022-09-22T18:17:58.234Z,99015.63
2022-09-22T18:20:01.217Z,99008.06
2022-09-22T18:22:11.111Z,99007.63
2022-09-22T18:24:19.779Z,99004.06
2022-09-22T18:26:22.362Z,98999.72
2022-09-22T18:28:24.914Z,98989.06
2022-09-22T18:30:28.431Z,98991.63
2022-09-22T18:32:31.623Z,98986.97
2022-09-22T18:34:34.201Z,98994.25
2022-09-22T18:36:38.216Z,98992.34
2022-09-22T18:38:42.459Z,98994.31
2022-09-22T18:40:44.987Z,98984.78
2022-09-22T18:42:47.576Z,98995.78
2022-09-22T18:44:53.686Z,98998.03
2022-09-22T18:46:58.066Z,98997.16
2022-09-22T18:49:06.285Z,98997.00
2022-09-22T18:51:08.899Z,98996.13
2022-09-22T18:53:11.469Z,98998.03
2022-09-22T18:55:17.475Z,98996.78
2022-09-22T18:57:25.730Z,99000.28
2022-09-22T18:59:28.472Z,98989.59
2022-09-22T19:01:37.444Z,98987.19
2022-09-22T19:03:41.418Z,98984.78
2022-09-22T19:05:44.045Z,98980.03
2022-09-22T19:07:48.560Z,98975.31
2022-09-22T19:09:54.230Z,98975.81
2022-09-22T19:11:57.039Z,98976.31
2022-09-22T19:13:59.622Z,98970.16
2022-09-22T19:16:04.706Z,98969.78
2022-09-22T19:18:07.819Z,98970.53
2022-09-22T19:20:15.212Z,98972.84
2022-09-22T19:22:17.870Z,98966.53
2022-09-22T19:24:23.316Z,98962.94
2022-09-22T19:26:26.229Z,98955.09
2022-09-22T19:28:31.624Z,98958.28
2022-09-22T19:30:34.803Z,98952.91
2022-09-22T19:32:37.841Z,98955.81
2022-09-22T19:34:40.467Z,98956.69
2022-09-22T19:36:43.403Z,98961.13
2022-09-22T19:38:46.062Z,98958.78
2022-09-22T19:40:48.721Z,98964.81
2022-09-22T19:42:53.272Z,98967.69
2022-09-22T19:44:55.953Z,98975.22
2022-09-22T19:46:58.986Z,98966.94
2022-09-22T19:49:01.683Z,98962.06
2022-09-22T19:51:05.247Z,98966.38
2022-09-22T19:53:08.408Z,98958.38
2022-09-22T19:55:11.767Z,98961.69
2022-09-22T19:57:14.743Z,98961.94
2022-09-22T19:59:19.818Z,98958.59
2022-09-22T20:01:32.856Z,98950.44
2022-09-22T20:03:35.459Z,98964.53
2022-09-22T20:05:39.128Z,98958.50
2022-09-22T20:07:42.009Z,98945.66
2022-09-22T20:09:44.520Z,98953.44
2022-09-22T20:11:49.906Z,98944.53
2022-09-22T20:14:11.278Z,98956.38
2022-09-22T20:16:13.869Z,98947.59
2022-09-22T20:18:16.575Z,98940.81
2022-09-22T20:20:22.782Z,98945.16
2022-09-22T20:22:28.238Z,98939.22
2022-09-22T20:24:31.013Z,98938.34
2022-09-22T20:26:33.968Z,98933.59
2022-09-22T20:28:39.427Z,98935.56
2022-09-22T20:30:43.245Z,98928.00
2022-09-22T20:32:46.692Z,98926.41
2022-09-22T20:34:49.331Z,98922.91
2022-09-22T20:36:51.970Z,98917.81
2022-09-22T20:38:54.604Z,98920.31
2022-09-22T20:41:01.476Z,98909.69
2022-09-22T20:43:05.235Z,98904.69
2022-09-22T20:45:12.197Z,98901.94
2022-09-22T20:47:16.931Z,98904.31
2022-09-22T20:49:20.158Z,98900.13
2022-09-22T20:51:23.806Z,98883.97
2022-09-22T20:53:27.524Z,98897.41
2022-09-22T20:55:30.144Z,98889.94
2022-09-22T20:57:32.838Z,98884.47
2022-09-22T20:59:36.214Z,98883.41
2022-09-22T21:01:38.885Z,98887.06
2022-09-22T21:03:42.097Z,98879.22
2022-09-22T21:05:44.748Z,98878.47
2022-09-22T21:07:47.479Z,98876.50
2022-09-22T21:10:08.835Z,98876.59
2022-09-22T21:12:13.662Z,98871.06
2022-09-22T21:14:16.374Z,98863.19
2022-09-22T21:16:19.155Z,98869.88
2022-09-22T21:18:26.663Z,98859.25
2022-09-22T21:20:29.330Z,98866.41
2022-09-22T21:22:32.034Z,98866.00
2022-09-22T21:24:35.050Z,98865.22
2022-09-22T21:26:37.902Z,98858.50
2022-09-22T21:28:40.622Z,98849.81
2022-09-22T21:30:43.351Z,98850.22
2022-09-22T21:32:46.038Z,98838.00
2022-09-22T21:34:48.696Z,98836.03
2022-09-22T21:36:51.561Z,98832.13
2022-09-22T21:38:58.916Z,98828.97
2022-09-22T21:41:05.903Z,98829.41
2022-09-22T21:43:08.597Z,98824.31
2022-09-22T21:45:11.618Z,98828.66
2022-09-22T21:47:14.351Z,98827.94
2022-09-22T21:49:17.019Z,98816.44
2022-09-22T21:51:21.643Z,98819.22
2022-09-22T21:53:25.209Z,98820.75
2022-09-22T21:55:27.800Z,98822.28
2022-09-22T21:57:30.415Z,98815.44
2022-09-22T21:59:32.948Z,98816.63
2022-09-22T22:01:37.704Z,98811.44
2022-09-22T22:03:42.424Z,98818.94
2022-09-22T22:05:45.091Z,98809.13
2022-09-22T22:07:48.219Z,98805.63
2022-09-22T22:09:50.993Z,98810.03
2022-09-22T22:11:59.085Z,98817.19
2022-09-22T22:14:04.297Z,98814.03
2022-09-22T22:16:09.383Z,98821.97
2022-09-22T22:18:11.923Z,98812.88
2022-09-22T22:20:14.952Z,98818.41
2022-09-22T22:22:17.460Z,98820.81
2022-09-22T22:24:29.117Z,98822.03
2022-09-22T22:26:33.097Z,98814.13
2022-09-22T22:28:36.327Z,98813.69
2022-09-22T22:30:41.074Z,98815.34
2022-09-22T22:32:43.720Z,98806.31
2022-09-22T22:34:46.234Z,98806.75
2022-09-22T22:36:49.568Z,98801.66
2022-09-22T22:38:52.673Z,98796.09
2022-09-22T22:41:07.304Z,98798.09
2022-09-22T22:43:12.663Z,98796.47
2022-09-22T22:45:15.716Z,98791.31
2022-09-22T22:47:18.351Z,98788.47
2022-09-22T22:49:20.967Z,98790.03
2022-09-22T22:51:24.211Z,98786.78
2022-09-22T22:53:26.921Z,98779.19
2022-09-22T22:55:29.404Z,98784.25
2022-09-22T22:57:31.927Z,98776.59
2022-09-22T22:59:34.495Z,98772.53
2022-09-22T23:01:37.682Z,98772.84
2022-09-22T23:03:45.686Z,98761.25
2022-09-22T23:05:56.147Z,98765.91
2022-09-22T23:07:58.700Z,98756.41
2022-09-22T23:10:07.180Z,98744.56
2022-09-22T23:12:10.715Z,98749.63
2022-09-22T23:14:16.161Z,98741.34
2022-09-22T23:16:22.088Z,98740.16
2022-09-22T23:18:24.644Z,98733.06
2022-09-22T23:20:27.236Z,98730.00
2022-09-22T23:22:30.720Z,98727.59
2022-09-22T23:24:33.278Z,98726.00
2022-09-22T23:26:37.587Z,98727.53
2022-09-22T23:28:40.847Z,98722.34
2022-09-22T23:30:43.567Z,98721.13
2022-09-22T23:32:46.189Z,98707.66
2022-09-22T23:34:48.853Z,98715.97
2022-09-22T23:36:51.415Z,98706.88
2022-09-22T23:38:55.351Z,98702.16
2022-09-22T23:40:59.155Z,98701.34
2022-09-22T23:43:01.726Z,98702.97
2022-09-22T23:45:04.631Z,98688.63
2022-09-22T23:47:07.353Z,98697.00
2022-09-22T23:49:10.003Z,98696.22
2022-09-22T23:51:12.571Z,98697.00
2022-09-22T23:53:17.203Z,98695.03
2022-09-22T23:55:19.862Z,98700.13
2022-09-22T23:57:22.454Z,98698.97
2022-09-22T23:59:25.006Z,98699.69
